sensor_id;sensor_type;location;lat;lon;timestamp;temperature;humidity
47338;DHT22;33069;51.970;5.892;2023-04-25T00:01:40;6.40;88.10
47338;DHT22;33069;51.970;5.892;2023-04-25T00:04:15;6.10;87.80
47338;DHT22;33069;51.970;5.892;2023-04-25T00:06:41;6.20;87.70
47338;DHT22;33069;51.970;5.892;2023-04-25T00:09:15;6.20;87.60
47338;DHT22;33069;51.970;5.892;2023-04-25T00:11:41;6.10;87.50
47338;DHT22;33069;51.970;5.892;2023-04-25T00:14:13;6.10;87.50
47338;DHT22;33069;51.970;5.892;2023-04-25T00:16:38;6.10;87.30
47338;DHT22;33069;51.970;5.892;2023-04-25T00:19:13;6.30;87.20
47338;DHT22;33069;51.970;5.892;2023-04-25T00:21:39;6.10;86.90
47338;DHT22;33069;51.970;5.892;2023-04-25T00:24:15;6.20;87.00
47338;DHT22;33069;51.970;5.892;2023-04-25T00:26:40;6.20;87.20
47338;DHT22;33069;51.970;5.892;2023-04-25T00:29:15;6.20;87.20
47338;DHT22;33069;51.970;5.892;2023-04-25T00:31:40;6.20;87.30
47338;DHT22;33069;51.970;5.892;2023-04-25T00:34:12;6.30;87.30
47338;DHT22;33069;51.970;5.892;2023-04-25T00:36:38;6.20;87.30
47338;DHT22;33069;51.970;5.892;2023-04-25T00:39:15;6.30;87.60
47338;DHT22;33069;51.970;5.892;2023-04-25T00:41:41;6.20;87.50
47338;DHT22;33069;51.970;5.892;2023-04-25T00:44:16;6.10;87.50
47338;DHT22;33069;51.970;5.892;2023-04-25T00:46:42;6.00;87.60
47338;DHT22;33069;51.970;5.892;2023-04-25T00:49:14;6.00;87.90
47338;DHT22;33069;51.970;5.892;2023-04-25T00:51:42;6.00;88.10
47338;DHT22;33069;51.970;5.892;2023-04-25T00:54:13;5.90;88.20
47338;DHT22;33069;51.970;5.892;2023-04-25T00:56:40;5.90;88.30
47338;DHT22;33069;51.970;5.892;2023-04-25T00:59:15;6.10;88.60
47338;DHT22;33069;51.970;5.892;2023-04-25T01:01:41;5.90;88.50
47338;DHT22;33069;51.970;5.892;2023-04-25T01:04:13;6.20;88.60
47338;DHT22;33069;51.970;5.892;2023-04-25T01:06:39;6.00;88.50
47338;DHT22;33069;51.970;5.892;2023-04-25T01:09:15;5.90;88.40
47338;DHT22;33069;51.970;5.892;2023-04-25T01:11:41;5.80;88.40
47338;DHT22;33069;51.970;5.892;2023-04-25T01:14:14;5.70;88.50
47338;DHT22;33069;51.970;5.892;2023-04-25T01:16:40;6.00;88.70
47338;DHT22;33069;51.970;5.892;2023-04-25T01:19:16;6.00;88.70
47338;DHT22;33069;51.970;5.892;2023-04-25T01:21:42;5.80;88.60
47338;DHT22;33069;51.970;5.892;2023-04-25T01:24:13;5.90;88.60
47338;DHT22;33069;51.970;5.892;2023-04-25T01:26:40;5.80;88.50
47338;DHT22;33069;51.970;5.892;2023-04-25T01:29:12;6.00;88.60
47338;DHT22;33069;51.970;5.892;2023-04-25T01:31:38;5.80;88.40
47338;DHT22;33069;51.970;5.892;2023-04-25T01:34:13;5.90;88.50
47338;DHT22;33069;51.970;5.892;2023-04-25T01:36:39;5.80;88.50
47338;DHT22;33069;51.970;5.892;2023-04-25T01:39:15;5.90;88.40
47338;DHT22;33069;51.970;5.892;2023-04-25T01:41:41;5.80;88.20
47338;DHT22;33069;51.970;5.892;2023-04-25T01:44:13;5.70;88.10
47338;DHT22;33069;51.970;5.892;2023-04-25T01:46:38;5.70;88.20
47338;DHT22;33069;51.970;5.892;2023-04-25T01:49:13;5.60;88.20
47338;DHT22;33069;51.970;5.892;2023-04-25T01:51:39;5.70;88.30
47338;DHT22;33069;51.970;5.892;2023-04-25T01:54:50;5.70;88.00
47338;DHT22;33069;51.970;5.892;2023-04-25T01:57:16;5.60;87.80
47338;DHT22;33069;51.970;5.892;2023-04-25T01:59:43;5.70;88.00
47338;DHT22;33069;51.970;5.892;2023-04-25T02:02:09;5.90;87.90
47338;DHT22;33069;51.970;5.892;2023-04-25T02:04:41;5.70;87.60
47338;DHT22;33069;51.970;5.892;2023-04-25T02:07:06;5.60;87.40
47338;DHT22;33069;51.970;5.892;2023-04-25T02:09:32;5.80;87.00
47338;DHT22;33069;51.970;5.892;2023-04-25T02:11:58;5.70;86.80
47338;DHT22;33069;51.970;5.892;2023-04-25T02:14:24;5.90;86.50
47338;DHT22;33069;51.970;5.892;2023-04-25T02:16:52;6.00;86.10
47338;DHT22;33069;51.970;5.892;2023-04-25T02:19:24;6.00;85.40
47338;DHT22;33069;51.970;5.892;2023-04-25T02:21:50;6.00;85.40
47338;DHT22;33069;51.970;5.892;2023-04-25T02:24:15;6.00;84.90
47338;DHT22;33069;51.970;5.892;2023-04-25T02:26:41;6.00;84.70
47338;DHT22;33069;51.970;5.892;2023-04-25T02:29:13;5.80;84.30
47338;DHT22;33069;51.970;5.892;2023-04-25T02:31:40;5.90;84.40
47338;DHT22;33069;51.970;5.892;2023-04-25T02:34:11;5.80;84.80
47338;DHT22;33069;51.970;5.892;2023-04-25T02:36:37;5.70;84.40
47338;DHT22;33069;51.970;5.892;2023-04-25T02:39:11;5.60;84.90
47338;DHT22;33069;51.970;5.892;2023-04-25T02:41:37;5.60;85.10
47338;DHT22;33069;51.970;5.892;2023-04-25T02:44:11;5.70;85.10
47338;DHT22;33069;51.970;5.892;2023-04-25T02:46:38;5.60;84.90
47338;DHT22;33069;51.970;5.892;2023-04-25T02:49:13;5.50;85.00
47338;DHT22;33069;51.970;5.892;2023-04-25T02:51:38;5.40;85.30
47338;DHT22;33069;51.970;5.892;2023-04-25T02:54:16;5.50;85.40
47338;DHT22;33069;51.970;5.892;2023-04-25T02:56:42;5.60;85.20
47338;DHT22;33069;51.970;5.892;2023-04-25T02:59:16;5.60;84.70
47338;DHT22;33069;51.970;5.892;2023-04-25T03:01:41;5.40;84.40
47338;DHT22;33069;51.970;5.892;2023-04-25T03:04:10;5.60;84.70
47338;DHT22;33069;51.970;5.892;2023-04-25T03:06:36;5.50;84.80
47338;DHT22;33069;51.970;5.892;2023-04-25T03:09:10;5.40;84.50
47338;DHT22;33069;51.970;5.892;2023-04-25T03:11:38;5.40;84.70
47338;DHT22;33069;51.970;5.892;2023-04-25T03:14:16;5.40;84.60
47338;DHT22;33069;51.970;5.892;2023-04-25T03:16:41;5.20;84.10
47338;DHT22;33069;51.970;5.892;2023-04-25T03:19:14;5.50;84.60
47338;DHT22;33069;51.970;5.892;2023-04-25T03:21:41;5.60;84.00
47338;DHT22;33069;51.970;5.892;2023-04-25T03:24:19;5.50;83.70
47338;DHT22;33069;51.970;5.892;2023-04-25T03:26:45;5.50;83.90
47338;DHT22;33069;51.970;5.892;2023-04-25T03:29:10;5.50;84.10
47338;DHT22;33069;51.970;5.892;2023-04-25T03:31:37;5.30;84.10
47338;DHT22;33069;51.970;5.892;2023-04-25T03:34:11;5.50;84.50
47338;DHT22;33069;51.970;5.892;2023-04-25T03:36:37;5.50;84.00
47338;DHT22;33069;51.970;5.892;2023-04-25T03:39:11;5.30;83.50
47338;DHT22;33069;51.970;5.892;2023-04-25T03:41:37;5.00;83.60
47338;DHT22;33069;51.970;5.892;2023-04-25T03:44:14;5.20;84.40
47338;DHT22;33069;51.970;5.892;2023-04-25T03:46:40;4.90;84.30
47338;DHT22;33069;51.970;5.892;2023-04-25T03:49:16;5.00;84.70
47338;DHT22;33069;51.970;5.892;2023-04-25T03:51:41;5.00;84.60
47338;DHT22;33069;51.970;5.892;2023-04-25T03:54:16;5.00;84.70
47338;DHT22;33069;51.970;5.892;2023-04-25T03:56:41;5.00;84.80
47338;DHT22;33069;51.970;5.892;2023-04-25T03:59:10;5.20;85.10
47338;DHT22;33069;51.970;5.892;2023-04-25T04:01:35;5.20;84.70
47338;DHT22;33069;51.970;5.892;2023-04-25T04:04:14;5.10;84.50
47338;DHT22;33069;51.970;5.892;2023-04-25T04:06:40;4.90;84.30
47338;DHT22;33069;51.970;5.892;2023-04-25T04:09:11;4.80;84.60
47338;DHT22;33069;51.970;5.892;2023-04-25T04:11:38;4.90;84.90
47338;DHT22;33069;51.970;5.892;2023-04-25T04:14:16;5.00;85.00
47338;DHT22;33069;51.970;5.892;2023-04-25T04:16:42;4.90;84.80
47338;DHT22;33069;51.970;5.892;2023-04-25T04:19:14;5.00;84.50
47338;DHT22;33069;51.970;5.892;2023-04-25T04:21:40;4.90;84.40
47338;DHT22;33069;51.970;5.892;2023-04-25T04:24:15;5.00;84.60
47338;DHT22;33069;51.970;5.892;2023-04-25T04:26:42;4.70;84.70
47338;DHT22;33069;51.970;5.892;2023-04-25T04:29:13;4.70;85.00
47338;DHT22;33069;51.970;5.892;2023-04-25T04:31:47;4.60;85.20
47338;DHT22;33069;51.970;5.892;2023-04-25T04:34:13;4.50;85.50
47338;DHT22;33069;51.970;5.892;2023-04-25T04:36:38;4.50;85.70
47338;DHT22;33069;51.970;5.892;2023-04-25T04:39:14;4.50;86.10
47338;DHT22;33069;51.970;5.892;2023-04-25T04:41:40;4.60;86.20
47338;DHT22;33069;51.970;5.892;2023-04-25T04:44:14;4.60;86.10
47338;DHT22;33069;51.970;5.892;2023-04-25T04:46:40;4.50;86.20
47338;DHT22;33069;51.970;5.892;2023-04-25T04:49:12;4.70;86.80
47338;DHT22;33069;51.970;5.892;2023-04-25T04:51:41;4.40;86.40
47338;DHT22;33069;51.970;5.892;2023-04-25T04:54:12;4.50;86.60
47338;DHT22;33069;51.970;5.892;2023-04-25T04:56:38;4.50;86.30
47338;DHT22;33069;51.970;5.892;2023-04-25T04:59:13;4.50;86.30
47338;DHT22;33069;51.970;5.892;2023-04-25T05:01:39;4.60;86.00
47338;DHT22;33069;51.970;5.892;2023-04-25T05:04:13;4.50;85.90
47338;DHT22;33069;51.970;5.892;2023-04-25T05:06:39;4.60;86.00
47338;DHT22;33069;51.970;5.892;2023-04-25T05:09:04;4.70;85.80
47338;DHT22;33069;51.970;5.892;2023-04-25T05:11:30;4.60;85.70
47338;DHT22;33069;51.970;5.892;2023-04-25T05:13:56;4.70;85.60
47338;DHT22;33069;51.970;5.892;2023-04-25T05:16:21;4.60;85.50
47338;DHT22;33069;51.970;5.892;2023-04-25T05:18:47;4.60;85.50
47338;DHT22;33069;51.970;5.892;2023-04-25T05:21:13;4.60;85.60
47338;DHT22;33069;51.970;5.892;2023-04-25T05:23:39;4.60;85.70
47338;DHT22;33069;51.970;5.892;2023-04-25T05:26:05;4.70;85.80
47338;DHT22;33069;51.970;5.892;2023-04-25T05:28:31;4.80;85.60
47338;DHT22;33069;51.970;5.892;2023-04-25T05:30:56;5.00;85.60
47338;DHT22;33069;51.970;5.892;2023-04-25T05:33:22;4.90;85.20
47338;DHT22;33069;51.970;5.892;2023-04-25T05:35:48;5.00;85.10
47338;DHT22;33069;51.970;5.892;2023-04-25T05:38:14;5.00;85.00
47338;DHT22;33069;51.970;5.892;2023-04-25T05:40:40;5.10;84.80
47338;DHT22;33069;51.970;5.892;2023-04-25T05:43:06;5.00;84.40
47338;DHT22;33069;51.970;5.892;2023-04-25T05:45:32;5.10;84.60
47338;DHT22;33069;51.970;5.892;2023-04-25T05:47:58;5.10;84.50
47338;DHT22;33069;51.970;5.892;2023-04-25T05:50:24;5.10;84.30
47338;DHT22;33069;51.970;5.892;2023-04-25T05:52:50;5.10;84.20
47338;DHT22;33069;51.970;5.892;2023-04-25T05:55:15;5.10;84.20
47338;DHT22;33069;51.970;5.892;2023-04-25T05:57:41;5.20;83.80
47338;DHT22;33069;51.970;5.892;2023-04-25T06:00:09;5.30;83.50
47338;DHT22;33069;51.970;5.892;2023-04-25T06:02:35;5.10;83.40
47338;DHT22;33069;51.970;5.892;2023-04-25T06:05:00;5.40;83.30
47338;DHT22;33069;51.970;5.892;2023-04-25T06:07:29;5.60;82.90
47338;DHT22;33069;51.970;5.892;2023-04-25T06:09:55;5.70;81.80
47338;DHT22;33069;51.970;5.892;2023-04-25T06:12:21;5.60;81.40
47338;DHT22;33069;51.970;5.892;2023-04-25T06:14:47;5.60;82.10
47338;DHT22;33069;51.970;5.892;2023-04-25T06:17:13;5.60;81.90
47338;DHT22;33069;51.970;5.892;2023-04-25T06:19:38;5.60;81.90
47338;DHT22;33069;51.970;5.892;2023-04-25T06:22:04;5.40;82.10
47338;DHT22;33069;51.970;5.892;2023-04-25T06:24:30;5.30;82.40
47338;DHT22;33069;51.970;5.892;2023-04-25T06:26:56;5.30;82.80
47338;DHT22;33069;51.970;5.892;2023-04-25T06:29:21;5.50;82.70
47338;DHT22;33069;51.970;5.892;2023-04-25T06:31:47;5.30;82.40
47338;DHT22;33069;51.970;5.892;2023-04-25T06:34:13;5.50;82.80
47338;DHT22;33069;51.970;5.892;2023-04-25T06:36:39;5.40;82.60
47338;DHT22;33069;51.970;5.892;2023-04-25T06:39:04;5.50;82.30
47338;DHT22;33069;51.970;5.892;2023-04-25T06:41:30;5.50;82.10
47338;DHT22;33069;51.970;5.892;2023-04-25T06:43:56;5.60;82.10
47338;DHT22;33069;51.970;5.892;2023-04-25T06:46:21;5.70;82.40
47338;DHT22;33069;51.970;5.892;2023-04-25T06:48:47;5.70;82.00
47338;DHT22;33069;51.970;5.892;2023-04-25T06:51:13;5.80;82.00
47338;DHT22;33069;51.970;5.892;2023-04-25T06:53:42;5.90;81.80
47338;DHT22;33069;51.970;5.892;2023-04-25T06:56:07;6.00;81.10
47338;DHT22;33069;51.970;5.892;2023-04-25T06:58:33;6.20;80.50
47338;DHT22;33069;51.970;5.892;2023-04-25T07:00:59;6.40;80.30
47338;DHT22;33069;51.970;5.892;2023-04-25T07:03:24;6.40;79.40
47338;DHT22;33069;51.970;5.892;2023-04-25T07:05:50;6.40;79.90
47338;DHT22;33069;51.970;5.892;2023-04-25T07:08:16;6.50;79.70
47338;DHT22;33069;51.970;5.892;2023-04-25T07:10:42;6.70;79.70
47338;DHT22;33069;51.970;5.892;2023-04-25T07:13:08;6.70;79.60
47338;DHT22;33069;51.970;5.892;2023-04-25T07:15:34;6.40;78.90
47338;DHT22;33069;51.970;5.892;2023-04-25T07:18:00;6.70;79.30
47338;DHT22;33069;51.970;5.892;2023-04-25T07:20:25;6.80;78.30
47338;DHT22;33069;51.970;5.892;2023-04-25T07:22:53;6.70;78.10
47338;DHT22;33069;51.970;5.892;2023-04-25T07:25:19;6.80;78.50
47338;DHT22;33069;51.970;5.892;2023-04-25T07:27:45;6.80;77.50
47338;DHT22;33069;51.970;5.892;2023-04-25T07:30:11;7.10;77.60
47338;DHT22;33069;51.970;5.892;2023-04-25T07:32:38;7.20;74.80
47338;DHT22;33069;51.970;5.892;2023-04-25T07:35:04;7.20;76.10
47338;DHT22;33069;51.970;5.892;2023-04-25T07:37:32;7.40;75.00
47338;DHT22;33069;51.970;5.892;2023-04-25T07:39:58;7.60;74.40
47338;DHT22;33069;51.970;5.892;2023-04-25T07:42:24;7.70;74.50
47338;DHT22;33069;51.970;5.892;2023-04-25T07:44:50;7.60;73.90
47338;DHT22;33069;51.970;5.892;2023-04-25T07:47:17;7.40;71.50
47338;DHT22;33069;51.970;5.892;2023-04-25T07:49:44;7.50;73.10
47338;DHT22;33069;51.970;5.892;2023-04-25T07:52:11;7.50;73.50
47338;DHT22;33069;51.970;5.892;2023-04-25T07:54:37;7.40;72.00
47338;DHT22;33069;51.970;5.892;2023-04-25T07:57:03;7.80;72.70
47338;DHT22;33069;51.970;5.892;2023-04-25T07:59:28;7.50;69.80
47338;DHT22;33069;51.970;5.892;2023-04-25T08:01:54;7.70;70.00
47338;DHT22;33069;51.970;5.892;2023-04-25T08:04:22;7.80;68.20
47338;DHT22;33069;51.970;5.892;2023-04-25T08:06:48;7.80;69.00
47338;DHT22;33069;51.970;5.892;2023-04-25T08:09:14;7.90;69.30
47338;DHT22;33069;51.970;5.892;2023-04-25T08:11:40;8.10;68.50
47338;DHT22;33069;51.970;5.892;2023-04-25T08:14:07;7.90;66.60
47338;DHT22;33069;51.970;5.892;2023-04-25T08:16:32;7.70;68.00
47338;DHT22;33069;51.970;5.892;2023-04-25T08:18:59;7.60;67.80
47338;DHT22;33069;51.970;5.892;2023-04-25T08:21:25;7.80;67.90
47338;DHT22;33069;51.970;5.892;2023-04-25T08:23:53;7.90;63.20
47338;DHT22;33069;51.970;5.892;2023-04-25T08:26:18;8.00;62.50
47338;DHT22;33069;51.970;5.892;2023-04-25T08:28:44;8.20;63.20
47338;DHT22;33069;51.970;5.892;2023-04-25T08:31:10;8.30;63.30
47338;DHT22;33069;51.970;5.892;2023-04-25T08:33:36;8.10;62.90
47338;DHT22;33069;51.970;5.892;2023-04-25T08:36:02;8.40;61.00
47338;DHT22;33069;51.970;5.892;2023-04-25T08:38:28;8.50;63.20
47338;DHT22;33069;51.970;5.892;2023-04-25T08:40:54;8.50;62.50
47338;DHT22;33069;51.970;5.892;2023-04-25T08:43:20;8.30;60.10
47338;DHT22;33069;51.970;5.892;2023-04-25T08:45:47;8.30;60.20
47338;DHT22;33069;51.970;5.892;2023-04-25T08:48:14;8.30;60.50
47338;DHT22;33069;51.970;5.892;2023-04-25T08:50:53;8.20;61.00
47338;DHT22;33069;51.970;5.892;2023-04-25T08:53:27;8.10;64.20
47338;DHT22;33069;51.970;5.892;2023-04-25T08:55:58;8.00;63.00
47338;DHT22;33069;51.970;5.892;2023-04-25T08:58:24;8.00;60.90
47338;DHT22;33069;51.970;5.892;2023-04-25T09:00:51;8.10;61.60
47338;DHT22;33069;51.970;5.892;2023-04-25T09:03:18;8.20;60.20
47338;DHT22;33069;51.970;5.892;2023-04-25T09:05:44;8.20;61.10
47338;DHT22;33069;51.970;5.892;2023-04-25T09:08:10;8.00;62.40
47338;DHT22;33069;51.970;5.892;2023-04-25T09:10:36;7.80;61.50
47338;DHT22;33069;51.970;5.892;2023-04-25T09:13:13;7.90;61.10
47338;DHT22;33069;51.970;5.892;2023-04-25T09:15:57;8.00;62.60
47338;DHT22;33069;51.970;5.892;2023-04-25T09:18:24;7.70;59.10
47338;DHT22;33069;51.970;5.892;2023-04-25T09:20:52;7.40;65.70
47338;DHT22;33069;51.970;5.892;2023-04-25T09:23:19;7.20;69.00
47338;DHT22;33069;51.970;5.892;2023-04-25T09:25:51;7.10;67.00
47338;DHT22;33069;51.970;5.892;2023-04-25T09:28:26;7.50;66.50
47338;DHT22;33069;51.970;5.892;2023-04-25T09:30:56;7.70;66.00
47338;DHT22;33069;51.970;5.892;2023-04-25T09:33:29;8.20;64.10
47338;DHT22;33069;51.970;5.892;2023-04-25T09:36:05;8.30;64.90
47338;DHT22;33069;51.970;5.892;2023-04-25T09:38:39;7.80;61.70
47338;DHT22;33069;51.970;5.892;2023-04-25T09:41:06;7.70;62.20
47338;DHT22;33069;51.970;5.892;2023-04-25T09:43:32;7.80;60.50
47338;DHT22;33069;51.970;5.892;2023-04-25T09:45:57;7.60;58.50
47338;DHT22;33069;51.970;5.892;2023-04-25T09:48:27;7.70;59.80
47338;DHT22;33069;51.970;5.892;2023-04-25T09:51:13;8.20;60.30
47338;DHT22;33069;51.970;5.892;2023-04-25T09:53:43;7.90;60.70
47338;DHT22;33069;51.970;5.892;2023-04-25T09:56:10;8.30;60.80
47338;DHT22;33069;51.970;5.892;2023-04-25T09:58:37;8.40;58.20
47338;DHT22;33069;51.970;5.892;2023-04-25T10:01:05;8.50;58.70
47338;DHT22;33069;51.970;5.892;2023-04-25T10:03:33;8.50;57.20
47338;DHT22;33069;51.970;5.892;2023-04-25T10:06:01;8.90;59.60
47338;DHT22;33069;51.970;5.892;2023-04-25T10:08:37;9.20;55.90
47338;DHT22;33069;51.970;5.892;2023-04-25T10:11:05;9.30;55.40
47338;DHT22;33069;51.970;5.892;2023-04-25T10:13:32;9.10;56.00
47338;DHT22;33069;51.970;5.892;2023-04-25T10:15:59;9.30;55.70
47338;DHT22;33069;51.970;5.892;2023-04-25T10:18:26;8.90;52.50
47338;DHT22;33069;51.970;5.892;2023-04-25T10:21:00;8.80;53.90
47338;DHT22;33069;51.970;5.892;2023-04-25T10:23:27;8.50;57.40
47338;DHT22;33069;51.970;5.892;2023-04-25T10:25:55;8.50;56.20
47338;DHT22;33069;51.970;5.892;2023-04-25T10:28:21;8.60;56.40
47338;DHT22;33069;51.970;5.892;2023-04-25T10:31:08;8.70;52.70
47338;DHT22;33069;51.970;5.892;2023-04-25T10:33:39;9.00;56.10
47338;DHT22;33069;51.970;5.892;2023-04-25T10:36:19;9.30;53.70
47338;DHT22;33069;51.970;5.892;2023-04-25T10:38:48;8.90;51.00
47338;DHT22;33069;51.970;5.892;2023-04-25T10:41:17;8.90;53.30
47338;DHT22;33069;51.970;5.892;2023-04-25T10:43:48;8.70;57.50
47338;DHT22;33069;51.970;5.892;2023-04-25T10:46:29;8.20;61.90
47338;DHT22;33069;51.970;5.892;2023-04-25T10:49:00;8.10;63.00
47338;DHT22;33069;51.970;5.892;2023-04-25T10:51:30;8.10;64.20
47338;DHT22;33069;51.970;5.892;2023-04-25T10:54:05;8.40;64.10
47338;DHT22;33069;51.970;5.892;2023-04-25T10:56:32;8.30;64.00
47338;DHT22;33069;51.970;5.892;2023-04-25T10:59:12;8.50;64.20
47338;DHT22;33069;51.970;5.892;2023-04-25T11:01:53;8.40;63.90
47338;DHT22;33069;51.970;5.892;2023-04-25T11:04:29;9.20;66.00
47338;DHT22;33069;51.970;5.892;2023-04-25T11:07:13;9.30;62.00
47338;DHT22;33069;51.970;5.892;2023-04-25T11:09:44;9.20;58.10
47338;DHT22;33069;51.970;5.892;2023-04-25T11:12:11;9.50;62.80
47338;DHT22;33069;51.970;5.892;2023-04-25T11:14:38;9.50;61.10
47338;DHT22;33069;51.970;5.892;2023-04-25T11:17:03;9.80;60.40
47338;DHT22;33069;51.970;5.892;2023-04-25T11:19:29;9.80;58.80
47338;DHT22;33069;51.970;5.892;2023-04-25T11:21:56;9.70;60.30
47338;DHT22;33069;51.970;5.892;2023-04-25T11:24:30;9.30;61.50
47338;DHT22;33069;51.970;5.892;2023-04-25T11:26:58;9.30;57.20
47338;DHT22;33069;51.970;5.892;2023-04-25T11:29:28;9.80;55.60
47338;DHT22;33069;51.970;5.892;2023-04-25T11:31:55;9.60;52.80
47338;DHT22;33069;51.970;5.892;2023-04-25T11:34:28;9.50;54.40
47338;DHT22;33069;51.970;5.892;2023-04-25T11:36:56;9.70;50.40
47338;DHT22;33069;51.970;5.892;2023-04-25T11:39:24;9.70;49.20
47338;DHT22;33069;51.970;5.892;2023-04-25T11:41:50;9.70;51.40
47338;DHT22;33069;51.970;5.892;2023-04-25T11:44:17;9.60;50.50
47338;DHT22;33069;51.970;5.892;2023-04-25T11:46:44;9.80;53.60
47338;DHT22;33069;51.970;5.892;2023-04-25T11:49:10;10.00;53.80
47338;DHT22;33069;51.970;5.892;2023-04-25T11:51:45;9.50;52.30
47338;DHT22;33069;51.970;5.892;2023-04-25T11:54:11;9.40;53.50
47338;DHT22;33069;51.970;5.892;2023-04-25T11:56:41;9.50;56.20
47338;DHT22;33069;51.970;5.892;2023-04-25T11:59:07;9.70;53.30
47338;DHT22;33069;51.970;5.892;2023-04-25T12:01:47;9.50;51.60
47338;DHT22;33069;51.970;5.892;2023-04-25T12:04:18;9.60;50.60
47338;DHT22;33069;51.970;5.892;2023-04-25T12:06:45;9.90;54.10
47338;DHT22;33069;51.970;5.892;2023-04-25T12:09:14;9.90;51.90
47338;DHT22;33069;51.970;5.892;2023-04-25T12:11:45;9.60;50.80
47338;DHT22;33069;51.970;5.892;2023-04-25T12:14:11;9.10;56.50
47338;DHT22;33069;51.970;5.892;2023-04-25T12:16:45;8.50;60.00
47338;DHT22;33069;51.970;5.892;2023-04-25T12:19:15;8.10;61.50
47338;DHT22;33069;51.970;5.892;2023-04-25T12:21:43;8.10;63.20
47338;DHT22;33069;51.970;5.892;2023-04-25T12:24:16;8.20;63.70
47338;DHT22;33069;51.970;5.892;2023-04-25T12:26:47;7.80;63.60
47338;DHT22;33069;51.970;5.892;2023-04-25T12:29:21;7.70;64.30
47338;DHT22;33069;51.970;5.892;2023-04-25T12:31:47;7.60;65.90
47338;DHT22;33069;51.970;5.892;2023-04-25T12:34:13;7.60;65.30
47338;DHT22;33069;51.970;5.892;2023-04-25T12:36:40;7.70;66.60
47338;DHT22;33069;51.970;5.892;2023-04-25T12:39:06;7.70;66.10
47338;DHT22;33069;51.970;5.892;2023-04-25T12:41:32;7.70;64.70
47338;DHT22;33069;51.970;5.892;2023-04-25T12:43:58;8.00;63.60
47338;DHT22;33069;51.970;5.892;2023-04-25T12:46:24;8.00;63.40
47338;DHT22;33069;51.970;5.892;2023-04-25T12:48:50;8.10;62.90
47338;DHT22;33069;51.970;5.892;2023-04-25T12:58:33;8.70;60.50
47338;DHT22;33069;51.970;5.892;2023-04-25T13:00:59;8.70;58.20
47338;DHT22;33069;51.970;5.892;2023-04-25T13:03:25;8.80;60.00
47338;DHT22;33069;51.970;5.892;2023-04-25T13:05:51;9.00;57.10
47338;DHT22;33069;51.970;5.892;2023-04-25T13:08:21;9.30;56.80
47338;DHT22;33069;51.970;5.892;2023-04-25T13:10:49;9.40;58.30
47338;DHT22;33069;51.970;5.892;2023-04-25T13:13:15;9.70;58.00
47338;DHT22;33069;51.970;5.892;2023-04-25T13:15:42;9.80;56.60
47338;DHT22;33069;51.970;5.892;2023-04-25T13:18:07;9.90;55.10
47338;DHT22;33069;51.970;5.892;2023-04-25T13:20:33;10.00;55.00
47338;DHT22;33069;51.970;5.892;2023-04-25T13:22:59;9.80;56.20
47338;DHT22;33069;51.970;5.892;2023-04-25T13:25:25;9.40;56.80
47338;DHT22;33069;51.970;5.892;2023-04-25T13:27:51;9.30;58.80
47338;DHT22;33069;51.970;5.892;2023-04-25T13:30:17;9.50;58.20
47338;DHT22;33069;51.970;5.892;2023-04-25T13:32:42;9.60;58.50
47338;DHT22;33069;51.970;5.892;2023-04-25T13:35:11;10.10;57.40
47338;DHT22;33069;51.970;5.892;2023-04-25T13:37:38;9.90;60.90
47338;DHT22;33069;51.970;5.892;2023-04-25T13:40:08;10.00;55.40
47338;DHT22;33069;51.970;5.892;2023-04-25T13:42:36;9.80;55.00
47338;DHT22;33069;51.970;5.892;2023-04-25T13:45:02;9.50;55.40
47338;DHT22;33069;51.970;5.892;2023-04-25T13:47:29;9.20;55.90
47338;DHT22;33069;51.970;5.892;2023-04-25T13:49:55;9.20;56.90
47338;DHT22;33069;51.970;5.892;2023-04-25T13:52:21;9.20;53.30
47338;DHT22;33069;51.970;5.892;2023-04-25T13:54:49;9.70;53.40
47338;DHT22;33069;51.970;5.892;2023-04-25T13:57:16;10.00;53.20
47338;DHT22;33069;51.970;5.892;2023-04-25T13:59:41;9.80;52.10
47338;DHT22;33069;51.970;5.892;2023-04-25T14:02:07;9.90;53.70
47338;DHT22;33069;51.970;5.892;2023-04-25T14:04:33;9.70;53.00
47338;DHT22;33069;51.970;5.892;2023-04-25T14:06:59;9.70;52.10
47338;DHT22;33069;51.970;5.892;2023-04-25T14:09:25;9.50;51.80
47338;DHT22;33069;51.970;5.892;2023-04-25T14:11:52;9.80;49.10
47338;DHT22;33069;51.970;5.892;2023-04-25T14:14:19;10.20;49.20
47338;DHT22;33069;51.970;5.892;2023-04-25T14:16:46;10.10;47.60
47338;DHT22;33069;51.970;5.892;2023-04-25T14:19:14;9.80;52.90
47338;DHT22;33069;51.970;5.892;2023-04-25T14:21:40;9.30;55.10
47338;DHT22;33069;51.970;5.892;2023-04-25T14:24:06;9.10;57.40
47338;DHT22;33069;51.970;5.892;2023-04-25T14:26:33;9.00;58.70
47338;DHT22;33069;51.970;5.892;2023-04-25T14:29:00;9.30;58.50
47338;DHT22;33069;51.970;5.892;2023-04-25T14:31:26;9.20;56.70
47338;DHT22;33069;51.970;5.892;2023-04-25T14:33:53;9.10;55.70
47338;DHT22;33069;51.970;5.892;2023-04-25T14:36:19;9.40;55.40
47338;DHT22;33069;51.970;5.892;2023-04-25T14:38:45;9.50;53.60
47338;DHT22;33069;51.970;5.892;2023-04-25T14:41:11;9.90;55.60
47338;DHT22;33069;51.970;5.892;2023-04-25T14:43:36;10.60;55.70
47338;DHT22;33069;51.970;5.892;2023-04-25T14:46:02;10.50;51.40
47338;DHT22;33069;51.970;5.892;2023-04-25T14:48:29;10.50;50.80
47338;DHT22;33069;51.970;5.892;2023-04-25T14:50:54;10.60;49.20
47338;DHT22;33069;51.970;5.892;2023-04-25T14:53:22;10.80;47.10
47338;DHT22;33069;51.970;5.892;2023-04-25T14:55:48;10.80;47.50
47338;DHT22;33069;51.970;5.892;2023-04-25T14:58:14;11.10;47.20
47338;DHT22;33069;51.970;5.892;2023-04-25T15:00:40;11.00;50.10
47338;DHT22;33069;51.970;5.892;2023-04-25T15:03:06;10.40;49.90
47338;DHT22;33069;51.970;5.892;2023-04-25T15:05:33;10.20;51.20
47338;DHT22;33069;51.970;5.892;2023-04-25T15:07:59;10.00;54.90
47338;DHT22;33069;51.970;5.892;2023-04-25T15:10:25;9.90;54.30
47338;DHT22;33069;51.970;5.892;2023-04-25T15:12:51;9.60;52.90
47338;DHT22;33069;51.970;5.892;2023-04-25T15:15:19;9.70;53.20
47338;DHT22;33069;51.970;5.892;2023-04-25T15:17:44;9.90;53.90
47338;DHT22;33069;51.970;5.892;2023-04-25T15:20:12;10.10;52.00
47338;DHT22;33069;51.970;5.892;2023-04-25T15:22:42;10.20;52.70
47338;DHT22;33069;51.970;5.892;2023-04-25T15:25:09;9.90;50.30
47338;DHT22;33069;51.970;5.892;2023-04-25T15:27:39;9.90;50.50
47338;DHT22;33069;51.970;5.892;2023-04-25T15:30:13;9.40;51.80
47338;DHT22;33069;51.970;5.892;2023-04-25T15:32:41;9.20;55.00
47338;DHT22;33069;51.970;5.892;2023-04-25T15:35:07;9.10;57.80
47338;DHT22;33069;51.970;5.892;2023-04-25T15:37:34;9.10;57.80
47338;DHT22;33069;51.970;5.892;2023-04-25T15:40:06;8.90;59.70
47338;DHT22;33069;51.970;5.892;2023-04-25T15:42:46;8.60;60.30
47338;DHT22;33069;51.970;5.892;2023-04-25T15:45:13;8.60;59.80
47338;DHT22;33069;51.970;5.892;2023-04-25T15:47:39;9.10;59.30
47338;DHT22;33069;51.970;5.892;2023-04-25T15:50:07;9.40;57.90
47338;DHT22;33069;51.970;5.892;2023-04-25T15:52:34;9.80;56.60
47338;DHT22;33069;51.970;5.892;2023-04-25T15:55:01;10.20;53.20
47338;DHT22;33069;51.970;5.892;2023-04-25T15:57:27;9.90;54.30
47338;DHT22;33069;51.970;5.892;2023-04-25T15:59:52;10.40;55.80